sensor_id;sensor_type;location;lat;lon;timestamp;P1;durP1;ratioP1;P2;durP2;ratioP2
73850;SDS011;62190;51.548;5.688;2024-03-07T00:39:22;48.00;;;19.60;;
73850;SDS011;62190;51.548;5.688;2024-03-07T00:41:48;42.62;;;18.40;;
73850;SDS011;62190;51.548;5.688;2024-03-07T00:44:15;48.30;;;18.75;;
73850;SDS011;62190;51.548;5.688;2024-03-07T00:46:41;46.65;;;19.55;;
73850;SDS011;62190;51.548;5.688;2024-03-07T00:49:13;49.70;;;18.60;;
73850;SDS011;62190;51.548;5.688;2024-03-07T00:51:45;43.42;;;18.75;;
73850;SDS011;62190;51.548;5.688;2024-03-07T00:54:16;44.90;;;18.25;;
73850;SDS011;62190;51.548;5.688;2024-03-07T00:56:41;44.93;;;19.48;;
73850;SDS011;62190;51.548;5.688;2024-03-07T00:59:08;43.52;;;19.85;;
73850;SDS011;62190;51.548;5.688;2024-03-07T01:01:47;47.55;;;18.55;;
73850;SDS011;62190;51.548;5.688;2024-03-07T01:04:19;50.83;;;19.15;;
73850;SDS011;62190;51.548;5.688;2024-03-07T01:06:47;49.10;;;19.40;;
73850;SDS011;62190;51.548;5.688;2024-03-07T01:09:23;50.08;;;20.17;;
73850;SDS011;62190;51.548;5.688;2024-03-07T01:12:01;41.08;;;17.42;;
73850;SDS011;62190;51.548;5.688;2024-03-07T01:14:31;41.80;;;17.62;;
73850;SDS011;62190;51.548;5.688;2024-03-07T01:17:08;47.58;;;18.35;;
73850;SDS011;62190;51.548;5.688;2024-03-07T01:19:36;37.05;;;19.12;;
73850;SDS011;62190;51.548;5.688;2024-03-07T01:22:11;43.90;;;17.65;;
73850;SDS011;62190;51.548;5.688;2024-03-07T01:27:22;39.58;;;17.10;;
73850;SDS011;62190;51.548;5.688;2024-03-07T01:29:53;43.83;;;19.85;;
73850;SDS011;62190;51.548;5.688;2024-03-07T01:32:33;40.98;;;18.82;;
73850;SDS011;62190;51.548;5.688;2024-03-07T01:35:03;38.33;;;18.12;;
73850;SDS011;62190;51.548;5.688;2024-03-07T01:37:28;48.15;;;19.62;;
73850;SDS011;62190;51.548;5.688;2024-03-07T01:40:01;50.05;;;19.90;;
73850;SDS011;62190;51.548;5.688;2024-03-07T01:42:27;44.85;;;19.35;;
73850;SDS011;62190;51.548;5.688;2024-03-07T01:44:55;48.55;;;21.02;;
73850;SDS011;62190;51.548;5.688;2024-03-07T01:47:25;43.73;;;18.00;;
73850;SDS011;62190;51.548;5.688;2024-03-07T01:49:51;51.02;;;19.00;;
73850;SDS011;62190;51.548;5.688;2024-03-07T01:52:18;43.13;;;18.10;;
73850;SDS011;62190;51.548;5.688;2024-03-07T01:54:48;47.27;;;19.98;;
73850;SDS011;62190;51.548;5.688;2024-03-07T01:57:12;43.98;;;19.23;;
73850;SDS011;62190;51.548;5.688;2024-03-07T01:59:39;47.73;;;21.15;;
73850;SDS011;62190;51.548;5.688;2024-03-07T02:02:06;54.73;;;21.15;;
73850;SDS011;62190;51.548;5.688;2024-03-07T02:04:34;49.15;;;20.65;;
73850;SDS011;62190;51.548;5.688;2024-03-07T02:07:00;51.53;;;20.62;;
73850;SDS011;62190;51.548;5.688;2024-03-07T02:09:40;48.15;;;19.90;;
73850;SDS011;62190;51.548;5.688;2024-03-07T02:11:55;41.33;;;19.17;;
73850;SDS011;62190;51.548;5.688;2024-03-07T02:14:27;49.00;;;18.92;;
73850;SDS011;62190;51.548;5.688;2024-03-07T02:16:55;47.40;;;20.80;;
73850;SDS011;62190;51.548;5.688;2024-03-07T02:19:28;50.85;;;18.77;;
73850;SDS011;62190;51.548;5.688;2024-03-07T02:21:55;44.08;;;18.75;;
73850;SDS011;62190;51.548;5.688;2024-03-07T02:24:20;45.00;;;19.17;;
73850;SDS011;62190;51.548;5.688;2024-03-07T02:26:53;45.88;;;20.40;;
73850;SDS011;62190;51.548;5.688;2024-03-07T02:29:24;42.98;;;18.90;;
73850;SDS011;62190;51.548;5.688;2024-03-07T02:31:50;41.15;;;19.15;;
73850;SDS011;62190;51.548;5.688;2024-03-07T02:34:18;40.98;;;19.70;;
73850;SDS011;62190;51.548;5.688;2024-03-07T02:36:50;56.35;;;19.02;;
73850;SDS011;62190;51.548;5.688;2024-03-07T02:39:17;48.30;;;20.30;;
73850;SDS011;62190;51.548;5.688;2024-03-07T02:41:47;49.38;;;20.12;;
73850;SDS011;62190;51.548;5.688;2024-03-07T02:44:15;49.15;;;21.02;;
73850;SDS011;62190;51.548;5.688;2024-03-07T02:46:42;52.93;;;21.07;;
73850;SDS011;62190;51.548;5.688;2024-03-07T02:49:14;60.73;;;21.80;;
73850;SDS011;62190;51.548;5.688;2024-03-07T02:51:45;49.70;;;21.48;;
73850;SDS011;62190;51.548;5.688;2024-03-07T02:54:10;51.58;;;19.98;;
73850;SDS011;62190;51.548;5.688;2024-03-07T02:56:37;48.90;;;19.48;;
73850;SDS011;62190;51.548;5.688;2024-03-07T02:59:18;48.92;;;17.85;;
73850;SDS011;62190;51.548;5.688;2024-03-07T03:01:35;47.95;;;21.35;;
73850;SDS011;62190;51.548;5.688;2024-03-07T03:04:02;55.92;;;20.82;;
73850;SDS011;62190;51.548;5.688;2024-03-07T03:06:36;56.77;;;22.02;;
73850;SDS011;62190;51.548;5.688;2024-03-07T03:09:09;46.70;;;20.27;;
73850;SDS011;62190;51.548;5.688;2024-03-07T03:11:39;48.83;;;22.20;;
73850;SDS011;62190;51.548;5.688;2024-03-07T03:14:10;46.68;;;19.48;;
73850;SDS011;62190;51.548;5.688;2024-03-07T03:16:35;50.52;;;20.97;;
73850;SDS011;62190;51.548;5.688;2024-03-07T03:19:06;57.00;;;21.57;;
73850;SDS011;62190;51.548;5.688;2024-03-07T03:21:36;47.85;;;21.07;;
73850;SDS011;62190;51.548;5.688;2024-03-07T03:24:12;45.85;;;20.32;;
73850;SDS011;62190;51.548;5.688;2024-03-07T03:26:38;45.28;;;20.05;;
73850;SDS011;62190;51.548;5.688;2024-03-07T03:29:06;47.27;;;20.80;;
73850;SDS011;62190;51.548;5.688;2024-03-07T03:31:37;47.83;;;20.68;;
73850;SDS011;62190;51.548;5.688;2024-03-07T03:34:09;56.90;;;22.67;;
73850;SDS011;62190;51.548;5.688;2024-03-07T03:36:36;50.28;;;22.42;;
73850;SDS011;62190;51.548;5.688;2024-03-07T03:39:03;56.08;;;22.42;;
73850;SDS011;62190;51.548;5.688;2024-03-07T03:41:29;55.75;;;22.55;;
73850;SDS011;62190;51.548;5.688;2024-03-07T03:43:56;53.35;;;21.30;;
73850;SDS011;62190;51.548;5.688;2024-03-07T03:46:24;51.65;;;21.10;;
73850;SDS011;62190;51.548;5.688;2024-03-07T03:48:55;37.85;;;18.73;;
73850;SDS011;62190;51.548;5.688;2024-03-07T03:51:20;53.15;;;21.60;;
73850;SDS011;62190;51.548;5.688;2024-03-07T03:53:54;50.15;;;19.60;;
73850;SDS011;62190;51.548;5.688;2024-03-07T03:56:23;57.20;;;21.85;;
73850;SDS011;62190;51.548;5.688;2024-03-07T03:58:54;46.37;;;20.35;;
73850;SDS011;62190;51.548;5.688;2024-03-07T04:01:19;45.45;;;21.07;;
73850;SDS011;62190;51.548;5.688;2024-03-07T04:03:48;60.43;;;21.80;;
73850;SDS011;62190;51.548;5.688;2024-03-07T04:06:21;45.73;;;21.25;;
73850;SDS011;62190;51.548;5.688;2024-03-07T04:25:23;56.55;;;20.88;;
73850;SDS011;62190;51.548;5.688;2024-03-07T04:27:55;43.92;;;19.80;;
73850;SDS011;62190;51.548;5.688;2024-03-07T04:38:53;51.33;;;20.97;;
73850;SDS011;62190;51.548;5.688;2024-03-07T04:41:36;47.90;;;20.50;;
73850;SDS011;62190;51.548;5.688;2024-03-07T04:47:01;49.77;;;20.10;;
73850;SDS011;62190;51.548;5.688;2024-03-07T05:00:41;47.38;;;21.42;;
73850;SDS011;62190;51.548;5.688;2024-03-07T05:16:54;56.95;;;19.75;;
73850;SDS011;62190;51.548;5.688;2024-03-07T05:28:00;46.23;;;20.68;;
73850;SDS011;62190;51.548;5.688;2024-03-07T05:33:15;52.93;;;22.13;;
73850;SDS011;62190;51.548;5.688;2024-03-07T05:36:04;50.85;;;21.52;;
73850;SDS011;62190;51.548;5.688;2024-03-07T05:41:35;47.20;;;21.48;;
73850;SDS011;62190;51.548;5.688;2024-03-07T05:49:31;45.85;;;20.00;;
73850;SDS011;62190;51.548;5.688;2024-03-07T05:54:43;49.80;;;18.35;;
73850;SDS011;62190;51.548;5.688;2024-03-07T05:59:52;45.75;;;21.42;;
73850;SDS011;62190;51.548;5.688;2024-03-07T06:02:36;49.05;;;21.52;;
73850;SDS011;62190;51.548;5.688;2024-03-07T06:04:50;55.73;;;23.07;;
73850;SDS011;62190;51.548;5.688;2024-03-07T06:10:07;56.53;;;22.30;;
73850;SDS011;62190;51.548;5.688;2024-03-07T06:12:38;52.45;;;22.07;;
73850;SDS011;62190;51.548;5.688;2024-03-07T06:15:06;48.95;;;21.37;;
73850;SDS011;62190;51.548;5.688;2024-03-07T06:17:41;46.45;;;20.75;;
73850;SDS011;62190;51.548;5.688;2024-03-07T06:20:19;56.05;;;21.93;;
73850;SDS011;62190;51.548;5.688;2024-03-07T06:22:49;54.70;;;21.02;;
73850;SDS011;62190;51.548;5.688;2024-03-07T06:25:23;58.75;;;22.00;;
73850;SDS011;62190;51.548;5.688;2024-03-07T06:30:20;46.45;;;20.65;;
73850;SDS011;62190;51.548;5.688;2024-03-07T06:35:23;47.53;;;21.77;;
73850;SDS011;62190;51.548;5.688;2024-03-07T06:37:50;48.70;;;21.75;;
73850;SDS011;62190;51.548;5.688;2024-03-07T06:40:17;46.10;;;19.67;;
73850;SDS011;62190;51.548;5.688;2024-03-07T06:42:45;51.30;;;21.07;;
73850;SDS011;62190;51.548;5.688;2024-03-07T06:45:11;47.33;;;19.85;;
73850;SDS011;62190;51.548;5.688;2024-03-07T06:47:38;47.98;;;22.58;;
73850;SDS011;62190;51.548;5.688;2024-03-07T06:50:06;52.95;;;22.30;;
73850;SDS011;62190;51.548;5.688;2024-03-07T06:52:34;53.73;;;22.10;;
73850;SDS011;62190;51.548;5.688;2024-03-07T06:55:07;49.93;;;21.60;;
73850;SDS011;62190;51.548;5.688;2024-03-07T06:57:32;49.60;;;21.15;;
73850;SDS011;62190;51.548;5.688;2024-03-07T06:59:59;47.60;;;22.05;;
73850;SDS011;62190;51.548;5.688;2024-03-07T07:02:26;47.13;;;21.25;;
73850;SDS011;62190;51.548;5.688;2024-03-07T07:04:53;49.18;;;21.05;;
73850;SDS011;62190;51.548;5.688;2024-03-07T07:07:19;46.28;;;22.73;;
73850;SDS011;62190;51.548;5.688;2024-03-07T07:09:46;54.33;;;22.00;;
73850;SDS011;62190;51.548;5.688;2024-03-07T07:12:14;50.17;;;20.88;;
73850;SDS011;62190;51.548;5.688;2024-03-07T07:14:54;52.03;;;20.20;;
73850;SDS011;62190;51.548;5.688;2024-03-07T07:17:10;47.58;;;19.70;;
73850;SDS011;62190;51.548;5.688;2024-03-07T07:19:43;45.85;;;22.20;;
73850;SDS011;62190;51.548;5.688;2024-03-07T07:22:06;45.67;;;18.60;;
73850;SDS011;62190;51.548;5.688;2024-03-07T07:24:34;49.38;;;21.50;;
73850;SDS011;62190;51.548;5.688;2024-03-07T07:27:04;45.85;;;21.10;;
73850;SDS011;62190;51.548;5.688;2024-03-07T07:29:32;53.13;;;19.62;;
73850;SDS011;62190;51.548;5.688;2024-03-07T07:32:05;43.83;;;19.75;;
73850;SDS011;62190;51.548;5.688;2024-03-07T07:34:39;47.05;;;18.82;;
73850;SDS011;62190;51.548;5.688;2024-03-07T07:37:03;46.33;;;21.97;;
73850;SDS011;62190;51.548;5.688;2024-03-07T07:39:30;43.85;;;22.15;;
73850;SDS011;62190;51.548;5.688;2024-03-07T07:41:58;44.83;;;18.55;;
73850;SDS011;62190;51.548;5.688;2024-03-07T07:44:27;48.73;;;19.05;;
73850;SDS011;62190;51.548;5.688;2024-03-07T07:46:59;44.95;;;19.15;;
73850;SDS011;62190;51.548;5.688;2024-03-07T07:49:24;45.20;;;20.05;;
73850;SDS011;62190;51.548;5.688;2024-03-07T07:51:52;40.58;;;18.27;;
73850;SDS011;62190;51.548;5.688;2024-03-07T07:54:27;46.77;;;18.82;;
73850;SDS011;62190;51.548;5.688;2024-03-07T07:56:57;46.40;;;20.45;;
73850;SDS011;62190;51.548;5.688;2024-03-07T07:59:27;42.45;;;18.75;;
73850;SDS011;62190;51.548;5.688;2024-03-07T08:01:58;38.90;;;17.60;;
73850;SDS011;62190;51.548;5.688;2024-03-07T08:04:23;44.42;;;18.27;;
73850;SDS011;62190;51.548;5.688;2024-03-07T08:06:49;36.23;;;17.35;;
73850;SDS011;62190;51.548;5.688;2024-03-07T08:09:17;39.25;;;17.67;;
73850;SDS011;62190;51.548;5.688;2024-03-07T08:11:53;38.92;;;17.95;;
73850;SDS011;62190;51.548;5.688;2024-03-07T08:14:18;42.35;;;17.07;;
73850;SDS011;62190;51.548;5.688;2024-03-07T08:16:53;38.10;;;17.42;;
73850;SDS011;62190;51.548;5.688;2024-03-07T08:21:47;32.93;;;15.98;;
73850;SDS011;62190;51.548;5.688;2024-03-07T08:24:13;40.25;;;18.37;;
73850;SDS011;62190;51.548;5.688;2024-03-07T08:26:46;35.05;;;16.23;;
73850;SDS011;62190;51.548;5.688;2024-03-07T08:29:13;35.08;;;15.65;;
73850;SDS011;62190;51.548;5.688;2024-03-07T08:31:49;38.67;;;16.67;;
73850;SDS011;62190;51.548;5.688;2024-03-07T08:34:09;33.20;;;15.32;;
73850;SDS011;62190;51.548;5.688;2024-03-07T08:36:44;36.30;;;16.45;;
73850;SDS011;62190;51.548;5.688;2024-03-07T08:39:18;33.33;;;17.05;;
73850;SDS011;62190;51.548;5.688;2024-03-07T08:41:42;41.48;;;16.52;;
73850;SDS011;62190;51.548;5.688;2024-03-07T08:44:11;31.37;;;15.50;;
73850;SDS011;62190;51.548;5.688;2024-03-07T08:46:38;34.88;;;15.90;;
73850;SDS011;62190;51.548;5.688;2024-03-07T08:49:09;32.83;;;17.82;;
73850;SDS011;62190;51.548;5.688;2024-03-07T08:51:37;30.65;;;13.75;;
73850;SDS011;62190;51.548;5.688;2024-03-07T08:54:08;37.28;;;16.45;;
73850;SDS011;62190;51.548;5.688;2024-03-07T08:56:32;32.90;;;16.37;;
73850;SDS011;62190;51.548;5.688;2024-03-07T08:58:58;29.63;;;14.98;;
73850;SDS011;62190;51.548;5.688;2024-03-07T09:01:27;31.80;;;16.17;;
73850;SDS011;62190;51.548;5.688;2024-03-07T09:03:54;36.88;;;15.65;;
73850;SDS011;62190;51.548;5.688;2024-03-07T09:06:25;32.38;;;15.03;;
73850;SDS011;62190;51.548;5.688;2024-03-07T09:09:08;32.08;;;14.93;;
73850;SDS011;62190;51.548;5.688;2024-03-07T09:11:48;32.00;;;14.23;;
73850;SDS011;62190;51.548;5.688;2024-03-07T09:14:08;33.60;;;14.73;;
73850;SDS011;62190;51.548;5.688;2024-03-07T09:16:35;34.88;;;14.53;;
73850;SDS011;62190;51.548;5.688;2024-03-07T09:19:01;27.62;;;12.73;;
73850;SDS011;62190;51.548;5.688;2024-03-07T09:21:33;31.07;;;15.13;;
73850;SDS011;62190;51.548;5.688;2024-03-07T09:23:58;25.88;;;12.18;;
73850;SDS011;62190;51.548;5.688;2024-03-07T09:27:09;29.48;;;13.78;;
73850;SDS011;62190;51.548;5.688;2024-03-07T09:29:00;34.88;;;14.28;;
73850;SDS011;62190;51.548;5.688;2024-03-07T09:31:28;28.52;;;14.07;;
73850;SDS011;62190;51.548;5.688;2024-03-07T09:33:56;27.35;;;11.90;;
73850;SDS011;62190;51.548;5.688;2024-03-07T09:36:27;26.62;;;12.78;;
73850;SDS011;62190;51.548;5.688;2024-03-07T09:38:58;25.92;;;12.40;;
73850;SDS011;62190;51.548;5.688;2024-03-07T09:41:27;28.17;;;12.23;;
73850;SDS011;62190;51.548;5.688;2024-03-07T09:43:56;33.40;;;13.62;;
73850;SDS011;62190;51.548;5.688;2024-03-07T09:46:25;26.00;;;12.43;;
73850;SDS011;62190;51.548;5.688;2024-03-07T09:48:51;24.43;;;11.90;;
73850;SDS011;62190;51.548;5.688;2024-03-07T09:51:20;25.08;;;11.50;;
73850;SDS011;62190;51.548;5.688;2024-03-07T09:53:49;24.75;;;12.93;;
73850;SDS011;62190;51.548;5.688;2024-03-07T09:56:15;23.27;;;11.22;;
73850;SDS011;62190;51.548;5.688;2024-03-07T09:58:42;25.05;;;12.37;;
73850;SDS011;62190;51.548;5.688;2024-03-07T10:01:13;20.08;;;12.10;;
73850;SDS011;62190;51.548;5.688;2024-03-07T10:03:43;19.87;;;10.30;;
73850;SDS011;62190;51.548;5.688;2024-03-07T10:06:11;21.07;;;10.75;;
73850;SDS011;62190;51.548;5.688;2024-03-07T10:08:39;19.52;;;9.60;;
73850;SDS011;62190;51.548;5.688;2024-03-07T10:11:17;24.07;;;12.33;;
73850;SDS011;62190;51.548;5.688;2024-03-07T10:13:46;23.27;;;11.10;;
73850;SDS011;62190;51.548;5.688;2024-03-07T10:16:08;20.77;;;10.88;;
73850;SDS011;62190;51.548;5.688;2024-03-07T10:18:41;25.32;;;11.48;;
73850;SDS011;62190;51.548;5.688;2024-03-07T10:21:08;19.65;;;10.43;;
73850;SDS011;62190;51.548;5.688;2024-03-07T10:24:03;20.15;;;11.25;;
73850;SDS011;62190;51.548;5.688;2024-03-07T10:26:22;20.95;;;10.88;;
73850;SDS011;62190;51.548;5.688;2024-03-07T10:28:49;24.15;;;9.95;;
73850;SDS011;62190;51.548;5.688;2024-03-07T10:31:37;23.27;;;11.18;;
73850;SDS011;62190;51.548;5.688;2024-03-07T10:33:43;20.68;;;10.58;;
73850;SDS011;62190;51.548;5.688;2024-03-07T10:36:11;20.52;;;10.70;;
73850;SDS011;62190;51.548;5.688;2024-03-07T10:38:40;26.07;;;11.28;;
73850;SDS011;62190;51.548;5.688;2024-03-07T10:41:08;21.93;;;10.93;;
73850;SDS011;62190;51.548;5.688;2024-03-07T10:43:36;24.05;;;11.05;;
73850;SDS011;62190;51.548;5.688;2024-03-07T10:46:05;24.20;;;11.20;;
73850;SDS011;62190;51.548;5.688;2024-03-07T10:48:38;19.15;;;10.28;;
73850;SDS011;62190;51.548;5.688;2024-03-07T10:51:19;25.55;;;12.03;;
73850;SDS011;62190;51.548;5.688;2024-03-07T10:58:58;18.95;;;9.18;;
73850;SDS011;62190;51.548;5.688;2024-03-07T11:01:30;20.90;;;8.58;;
73850;SDS011;62190;51.548;5.688;2024-03-07T11:03:55;18.45;;;9.20;;
73850;SDS011;62190;51.548;5.688;2024-03-07T11:06:23;23.18;;;9.65;;
73850;SDS011;62190;51.548;5.688;2024-03-07T11:08:50;19.98;;;8.90;;
73850;SDS011;62190;51.548;5.688;2024-03-07T11:11:21;17.55;;;8.78;;
73850;SDS011;62190;51.548;5.688;2024-03-07T11:13:45;17.57;;;9.23;;
73850;SDS011;62190;51.548;5.688;2024-03-07T11:16:12;16.80;;;9.05;;
73850;SDS011;62190;51.548;5.688;2024-03-07T11:18:45;20.68;;;10.32;;
73850;SDS011;62190;51.548;5.688;2024-03-07T11:21:39;19.50;;;8.88;;
73850;SDS011;62190;51.548;5.688;2024-03-07T11:23:39;17.00;;;8.75;;
73850;SDS011;62190;51.548;5.688;2024-03-07T11:26:07;18.48;;;8.95;;
73850;SDS011;62190;51.548;5.688;2024-03-07T11:28:39;17.35;;;8.33;;
73850;SDS011;62190;51.548;5.688;2024-03-07T11:34:12;12.78;;;8.33;;
73850;SDS011;62190;51.548;5.688;2024-03-07T11:36:46;21.62;;;9.63;;
73850;SDS011;62190;51.548;5.688;2024-03-07T11:42:22;16.75;;;7.60;;
73850;SDS011;62190;51.548;5.688;2024-03-07T11:45:01;16.42;;;8.33;;
73850;SDS011;62190;51.548;5.688;2024-03-07T11:50:14;17.20;;;8.28;;
73850;SDS011;62190;51.548;5.688;2024-03-07T11:52:42;17.20;;;8.20;;
73850;SDS011;62190;51.548;5.688;2024-03-07T11:55:22;16.25;;;8.23;;
73850;SDS011;62190;51.548;5.688;2024-03-07T11:57:47;13.58;;;7.42;;
73850;SDS011;62190;51.548;5.688;2024-03-07T12:00:14;22.45;;;8.43;;
73850;SDS011;62190;51.548;5.688;2024-03-07T12:02:42;18.57;;;8.18;;
73850;SDS011;62190;51.548;5.688;2024-03-07T12:05:15;16.82;;;8.73;;
73850;SDS011;62190;51.548;5.688;2024-03-07T12:07:47;15.32;;;8.28;;
73850;SDS011;62190;51.548;5.688;2024-03-07T12:10:25;17.10;;;8.93;;
73850;SDS011;62190;51.548;5.688;2024-03-07T12:12:47;14.87;;;8.13;;
73850;SDS011;62190;51.548;5.688;2024-03-07T12:15:18;17.82;;;8.45;;
73850;SDS011;62190;51.548;5.688;2024-03-07T12:17:50;19.12;;;9.18;;
73850;SDS011;62190;51.548;5.688;2024-03-07T12:20:19;17.75;;;8.30;;
73850;SDS011;62190;51.548;5.688;2024-03-07T12:23:00;17.92;;;8.45;;
73850;SDS011;62190;51.548;5.688;2024-03-07T12:33:36;14.40;;;7.75;;
73850;SDS011;62190;51.548;5.688;2024-03-07T12:35:51;19.75;;;9.15;;
73850;SDS011;62190;51.548;5.688;2024-03-07T12:38:32;17.77;;;8.43;;
73850;SDS011;62190;51.548;5.688;2024-03-07T12:41:09;16.25;;;8.80;;
73850;SDS011;62190;51.548;5.688;2024-03-07T12:43:43;19.50;;;8.55;;
73850;SDS011;62190;51.548;5.688;2024-03-07T12:46:23;17.92;;;7.37;;
73850;SDS011;62190;51.548;5.688;2024-03-07T12:49:01;12.73;;;7.28;;
73850;SDS011;62190;51.548;5.688;2024-03-07T12:51:43;16.20;;;7.40;;
73850;SDS011;62190;51.548;5.688;2024-03-07T12:59:27;20.40;;;8.00;;
73850;SDS011;62190;51.548;5.688;2024-03-07T13:02:03;15.50;;;8.00;;
73850;SDS011;62190;51.548;5.688;2024-03-07T13:04:23;16.10;;;8.13;;
73850;SDS011;62190;51.548;5.688;2024-03-07T13:06:57;14.93;;;7.40;;
73850;SDS011;62190;51.548;5.688;2024-03-07T13:09:30;17.50;;;8.00;;
73850;SDS011;62190;51.548;5.688;2024-03-07T13:12:15;12.05;;;7.12;;
73850;SDS011;62190;51.548;5.688;2024-03-07T13:14:49;15.43;;;6.75;;
73850;SDS011;62190;51.548;5.688;2024-03-07T13:17:19;13.85;;;7.58;;
73850;SDS011;62190;51.548;5.688;2024-03-07T13:19:46;16.20;;;8.30;;
73850;SDS011;62190;51.548;5.688;2024-03-07T13:22:23;16.07;;;7.28;;
73850;SDS011;62190;51.548;5.688;2024-03-07T13:30:17;13.70;;;7.85;;
73850;SDS011;62190;51.548;5.688;2024-03-07T13:38:14;14.20;;;7.50;;
73850;SDS011;62190;51.548;5.688;2024-03-07T13:40:51;14.47;;;7.33;;
73850;SDS011;62190;51.548;5.688;2024-03-07T13:46:17;13.95;;;7.72;;
73850;SDS011;62190;51.548;5.688;2024-03-07T13:49:37;19.32;;;8.28;;
73850;SDS011;62190;51.548;5.688;2024-03-07T13:51:32;18.90;;;8.55;;
73850;SDS011;62190;51.548;5.688;2024-03-07T13:59:20;17.27;;;8.15;;
73850;SDS011;62190;51.548;5.688;2024-03-07T14:20:44;22.65;;;9.60;;
73850;SDS011;62190;51.548;5.688;2024-03-07T14:31:11;23.10;;;9.53;;
73850;SDS011;62190;51.548;5.688;2024-03-07T14:33:54;19.50;;;10.58;;
73850;SDS011;62190;51.548;5.688;2024-03-07T14:36:21;22.93;;;10.80;;
73850;SDS011;62190;51.548;5.688;2024-03-07T14:38:52;23.18;;;10.72;;
73850;SDS011;62190;51.548;5.688;2024-03-07T14:41:15;21.55;;;9.55;;
73850;SDS011;62190;51.548;5.688;2024-03-07T14:43:44;19.10;;;10.55;;
73850;SDS011;62190;51.548;5.688;2024-03-07T14:46:13;19.35;;;9.45;;
73850;SDS011;62190;51.548;5.688;2024-03-07T14:48:40;19.35;;;10.25;;
73850;SDS011;62190;51.548;5.688;2024-03-07T14:51:07;25.72;;;10.75;;
73850;SDS011;62190;51.548;5.688;2024-03-07T14:53:34;24.15;;;10.38;;
73850;SDS011;62190;51.548;5.688;2024-03-07T14:56:03;18.07;;;9.93;;
73850;SDS011;62190;51.548;5.688;2024-03-07T14:58:30;22.58;;;10.13;;
73850;SDS011;62190;51.548;5.688;2024-03-07T15:00:57;20.70;;;10.63;;
73850;SDS011;62190;51.548;5.688;2024-03-07T15:03:24;19.48;;;11.25;;
73850;SDS011;62190;51.548;5.688;2024-03-07T15:05:53;22.65;;;9.93;;
73850;SDS011;62190;51.548;5.688;2024-03-07T15:08:20;18.85;;;10.65;;
73850;SDS011;62190;51.548;5.688;2024-03-07T15:10:50;19.40;;;9.53;;
73850;SDS011;62190;51.548;5.688;2024-03-07T15:13:17;18.80;;;9.90;;
73850;SDS011;62190;51.548;5.688;2024-03-07T15:15:45;20.15;;;9.75;;
73850;SDS011;62190;51.548;5.688;2024-03-07T15:18:13;21.85;;;10.00;;
73850;SDS011;62190;51.548;5.688;2024-03-07T15:20:41;20.48;;;10.58;;
73850;SDS011;62190;51.548;5.688;2024-03-07T15:23:12;20.77;;;10.85;;
73850;SDS011;62190;51.548;5.688;2024-03-07T15:25:44;28.55;;;11.40;;
73850;SDS011;62190;51.548;5.688;2024-03-07T15:28:10;18.50;;;10.08;;
73850;SDS011;62190;51.548;5.688;2024-03-07T15:30:36;20.00;;;11.18;;
73850;SDS011;62190;51.548;5.688;2024-03-07T15:33:04;21.17;;;11.40;;
73850;SDS011;62190;51.548;5.688;2024-03-07T15:38:15;19.45;;;10.38;;
73850;SDS011;62190;51.548;5.688;2024-03-07T15:40:40;18.10;;;9.23;;
73850;SDS011;62190;51.548;5.688;2024-03-07T15:43:14;19.37;;;9.23;;
73850;SDS011;62190;51.548;5.688;2024-03-07T15:45:39;24.50;;;10.43;;
73850;SDS011;62190;51.548;5.688;2024-03-07T15:48:08;23.45;;;10.13;;
73850;SDS011;62190;51.548;5.688;2024-03-07T15:50:36;21.27;;;9.35;;
73850;SDS011;62190;51.548;5.688;2024-03-07T15:53:04;19.82;;;9.73;;
73850;SDS011;62190;51.548;5.688;2024-03-07T15:55:35;14.87;;;9.05;;
73850;SDS011;62190;51.548;5.688;2024-03-07T15:58:01;17.02;;;9.58;;
73850;SDS011;62190;51.548;5.688;2024-03-07T16:00:40;18.55;;;9.83;;
73850;SDS011;62190;51.548;5.688;2024-03-07T16:03:11;23.30;;;8.88;;
73850;SDS011;62190;51.548;5.688;2024-03-07T16:05:51;15.35;;;9.18;;
73850;SDS011;62190;51.548;5.688;2024-03-07T16:08:09;16.65;;;9.25;;
73850;SDS011;62190;51.548;5.688;2024-03-07T16:10:40;19.75;;;9.63;;
73850;SDS011;62190;51.548;5.688;2024-03-07T16:13:09;18.12;;;9.65;;
73850;SDS011;62190;51.548;5.688;2024-03-07T16:15:37;19.12;;;8.68;;
73850;SDS011;62190;51.548;5.688;2024-03-07T16:18:04;15.55;;;8.23;;
73850;SDS011;62190;51.548;5.688;2024-03-07T16:20:31;17.82;;;8.55;;
73850;SDS011;62190;51.548;5.688;2024-03-07T16:23:01;15.00;;;8.68;;
73850;SDS011;62190;51.548;5.688;2024-03-07T16:25:30;15.18;;;8.08;;
73850;SDS011;62190;51.548;5.688;2024-03-07T16:27:59;12.70;;;8.00;;
73850;SDS011;62190;51.548;5.688;2024-03-07T16:30:26;14.45;;;7.65;;
73850;SDS011;62190;51.548;5.688;2024-03-07T16:32:58;16.27;;;9.73;;
73850;SDS011;62190;51.548;5.688;2024-03-07T16:35:30;15.32;;;7.50;;
73850;SDS011;62190;51.548;5.688;2024-03-07T16:37:57;16.32;;;7.10;;
73850;SDS011;62190;51.548;5.688;2024-03-07T16:40:28;13.62;;;7.75;;
73850;SDS011;62190;51.548;5.688;2024-03-07T16:42:58;18.32;;;8.48;;
73850;SDS011;62190;51.548;5.688;2024-03-07T16:45:31;13.43;;;8.13;;
73850;SDS011;62190;51.548;5.688;2024-03-07T16:47:54;17.75;;;8.15;;
73850;SDS011;62190;51.548;5.688;2024-03-07T16:50:22;16.07;;;7.33;;
73850;SDS011;62190;51.548;5.688;2024-03-07T16:52:50;16.60;;;7.58;;
73850;SDS011;62190;51.548;5.688;2024-03-07T16:55:17;22.10;;;7.15;;
73850;SDS011;62190;51.548;5.688;2024-03-07T16:57:46;13.62;;;7.30;;
73850;SDS011;62190;51.548;5.688;2024-03-07T17:00:13;16.27;;;7.08;;
73850;SDS011;62190;51.548;5.688;2024-03-07T17:02:47;15.27;;;8.27;;
73850;SDS011;62190;51.548;5.688;2024-03-07T17:05:13;12.88;;;7.45;;
73850;SDS011;62190;51.548;5.688;2024-03-07T17:07:48;15.50;;;6.83;;
73850;SDS011;62190;51.548;5.688;2024-03-07T17:10:11;15.08;;;7.30;;
73850;SDS011;62190;51.548;5.688;2024-03-07T17:12:41;15.00;;;7.55;;
73850;SDS011;62190;51.548;5.688;2024-03-07T17:15:12;13.78;;;6.92;;
73850;SDS011;62190;51.548;5.688;2024-03-07T17:17:41;15.03;;;7.35;;
73850;SDS011;62190;51.548;5.688;2024-03-07T17:20:08;16.37;;;7.15;;
73850;SDS011;62190;51.548;5.688;2024-03-07T17:22:35;17.52;;;7.00;;
73850;SDS011;62190;51.548;5.688;2024-03-07T17:25:02;17.23;;;6.75;;
73850;SDS011;62190;51.548;5.688;2024-03-07T17:27:30;13.53;;;6.47;;
73850;SDS011;62190;51.548;5.688;2024-03-07T17:30:00;11.83;;;6.85;;
73850;SDS011;62190;51.548;5.688;2024-03-07T17:32:25;18.35;;;6.22;;
73850;SDS011;62190;51.548;5.688;2024-03-07T17:34:54;11.73;;;5.78;;
73850;SDS011;62190;51.548;5.688;2024-03-07T17:37:26;17.35;;;7.53;;
73850;SDS011;62190;51.548;5.688;2024-03-07T17:39:58;14.38;;;7.00;;
73850;SDS011;62190;51.548;5.688;2024-03-07T17:42:25;16.10;;;6.33;;
73850;SDS011;62190;51.548;5.688;2024-03-07T17:44:52;13.95;;;6.40;;
73850;SDS011;62190;51.548;5.688;2024-03-07T17:47:24;12.82;;;6.28;;
73850;SDS011;62190;51.548;5.688;2024-03-07T17:49:48;10.65;;;6.00;;
73850;SDS011;62190;51.548;5.688;2024-03-07T17:52:17;12.95;;;5.80;;
73850;SDS011;62190;51.548;5.688;2024-03-07T17:54:44;12.70;;;6.47;;
73850;SDS011;62190;51.548;5.688;2024-03-07T17:57:19;9.25;;;6.03;;
73850;SDS011;62190;51.548;5.688;2024-03-07T17:59:47;15.75;;;7.22;;
73850;SDS011;62190;51.548;5.688;2024-03-07T18:02:19;12.80;;;5.90;;
73850;SDS011;62190;51.548;5.688;2024-03-07T18:05:03;17.55;;;7.20;;